sensor_id;sensor_type;location;lat;lon;timestamp;P1;durP1;ratioP1;P2;durP2;ratioP2
16063;SDS011;8136;53.172;8.256;2024-03-29T00:00:34;3.70;;;1.33;;
16063;SDS011;8136;53.172;8.256;2024-03-29T00:03:00;2.27;;;0.87;;
16063;SDS011;8136;53.172;8.256;2024-03-29T00:05:26;1.47;;;1.10;;
16063;SDS011;8136;53.172;8.256;2024-03-29T00:07:52;2.40;;;0.90;;
16063;SDS011;8136;53.172;8.256;2024-03-29T00:10:19;2.57;;;1.10;;
16063;SDS011;8136;53.172;8.256;2024-03-29T00:12:45;4.63;;;1.33;;
16063;SDS011;8136;53.172;8.256;2024-03-29T00:15:11;1.80;;;1.10;;
16063;SDS011;8136;53.172;8.256;2024-03-29T00:17:37;1.57;;;1.07;;
16063;SDS011;8136;53.172;8.256;2024-03-29T00:20:03;2.53;;;1.10;;
16063;SDS011;8136;53.172;8.256;2024-03-29T00:22:30;2.27;;;1.00;;
16063;SDS011;8136;53.172;8.256;2024-03-29T00:24:56;4.13;;;1.00;;
16063;SDS011;8136;53.172;8.256;2024-03-29T00:27:23;2.90;;;1.17;;
16063;SDS011;8136;53.172;8.256;2024-03-29T00:29:49;3.13;;;0.80;;
16063;SDS011;8136;53.172;8.256;2024-03-29T00:32:15;2.50;;;0.70;;
16063;SDS011;8136;53.172;8.256;2024-03-29T00:34:41;2.43;;;1.03;;
16063;SDS011;8136;53.172;8.256;2024-03-29T00:37:07;1.77;;;1.10;;
16063;SDS011;8136;53.172;8.256;2024-03-29T00:39:33;1.43;;;1.00;;
16063;SDS011;8136;53.172;8.256;2024-03-29T00:41:59;1.03;;;0.73;;
16063;SDS011;8136;53.172;8.256;2024-03-29T00:44:26;3.10;;;0.83;;
16063;SDS011;8136;53.172;8.256;2024-03-29T00:46:52;1.07;;;0.77;;
16063;SDS011;8136;53.172;8.256;2024-03-29T00:49:18;2.53;;;1.00;;
16063;SDS011;8136;53.172;8.256;2024-03-29T00:51:44;2.40;;;0.70;;
16063;SDS011;8136;53.172;8.256;2024-03-29T00:54:13;1.57;;;0.97;;
16063;SDS011;8136;53.172;8.256;2024-03-29T00:56:39;2.87;;;1.00;;
16063;SDS011;8136;53.172;8.256;2024-03-29T00:59:05;2.03;;;1.00;;
16063;SDS011;8136;53.172;8.256;2024-03-29T01:01:33;4.53;;;0.97;;
16063;SDS011;8136;53.172;8.256;2024-03-29T01:03:59;2.40;;;0.80;;
16063;SDS011;8136;53.172;8.256;2024-03-29T01:06:28;2.83;;;0.73;;
16063;SDS011;8136;53.172;8.256;2024-03-29T01:08:54;2.17;;;1.10;;
16063;SDS011;8136;53.172;8.256;2024-03-29T01:11:20;2.93;;;0.90;;
16063;SDS011;8136;53.172;8.256;2024-03-29T01:13:45;2.73;;;1.07;;
16063;SDS011;8136;53.172;8.256;2024-03-29T01:16:11;1.67;;;0.60;;
16063;SDS011;8136;53.172;8.256;2024-03-29T01:18:39;2.20;;;0.90;;
16063;SDS011;8136;53.172;8.256;2024-03-29T01:21:05;1.37;;;0.70;;
16063;SDS011;8136;53.172;8.256;2024-03-29T01:23:31;2.93;;;0.87;;
16063;SDS011;8136;53.172;8.256;2024-03-29T01:25:57;2.00;;;1.00;;
16063;SDS011;8136;53.172;8.256;2024-03-29T01:28:23;3.77;;;1.10;;
16063;SDS011;8136;53.172;8.256;2024-03-29T01:30:52;2.20;;;0.77;;
16063;SDS011;8136;53.172;8.256;2024-03-29T01:33:18;1.90;;;0.80;;
16063;SDS011;8136;53.172;8.256;2024-03-29T01:35:45;4.03;;;1.00;;
16063;SDS011;8136;53.172;8.256;2024-03-29T01:38:11;2.40;;;1.17;;
16063;SDS011;8136;53.172;8.256;2024-03-29T01:40:37;3.93;;;0.80;;
16063;SDS011;8136;53.172;8.256;2024-03-29T01:43:03;1.10;;;0.87;;
16063;SDS011;8136;53.172;8.256;2024-03-29T01:45:29;2.17;;;0.90;;
16063;SDS011;8136;53.172;8.256;2024-03-29T01:48:00;2.43;;;0.90;;
16063;SDS011;8136;53.172;8.256;2024-03-29T01:50:26;4.17;;;0.73;;
16063;SDS011;8136;53.172;8.256;2024-03-29T01:52:55;1.60;;;0.83;;
16063;SDS011;8136;53.172;8.256;2024-03-29T01:55:28;2.27;;;1.10;;
16063;SDS011;8136;53.172;8.256;2024-03-29T01:57:55;2.60;;;1.00;;
16063;SDS011;8136;53.172;8.256;2024-03-29T02:00:24;1.87;;;0.90;;
16063;SDS011;8136;53.172;8.256;2024-03-29T02:02:52;1.70;;;0.70;;
16063;SDS011;8136;53.172;8.256;2024-03-29T02:05:19;1.60;;;0.73;;
16063;SDS011;8136;53.172;8.256;2024-03-29T02:07:46;3.63;;;0.87;;
16063;SDS011;8136;53.172;8.256;2024-03-29T02:10:14;2.47;;;0.90;;
16063;SDS011;8136;53.172;8.256;2024-03-29T02:12:42;2.33;;;0.80;;
16063;SDS011;8136;53.172;8.256;2024-03-29T02:15:14;1.40;;;0.83;;
16063;SDS011;8136;53.172;8.256;2024-03-29T02:17:42;2.47;;;0.93;;
16063;SDS011;8136;53.172;8.256;2024-03-29T02:20:09;2.87;;;1.10;;
16063;SDS011;8136;53.172;8.256;2024-03-29T02:22:38;1.90;;;1.23;;
16063;SDS011;8136;53.172;8.256;2024-03-29T02:25:14;1.17;;;0.60;;
16063;SDS011;8136;53.172;8.256;2024-03-29T02:27:41;1.07;;;0.77;;
16063;SDS011;8136;53.172;8.256;2024-03-29T02:30:12;1.60;;;0.80;;
16063;SDS011;8136;53.172;8.256;2024-03-29T02:32:39;2.10;;;0.93;;
16063;SDS011;8136;53.172;8.256;2024-03-29T02:35:07;1.40;;;0.93;;
16063;SDS011;8136;53.172;8.256;2024-03-29T02:37:34;1.20;;;0.77;;
16063;SDS011;8136;53.172;8.256;2024-03-29T02:40:02;1.60;;;0.70;;
16063;SDS011;8136;53.172;8.256;2024-03-29T02:42:31;1.67;;;0.80;;
16063;SDS011;8136;53.172;8.256;2024-03-29T02:44:58;2.13;;;0.90;;
16063;SDS011;8136;53.172;8.256;2024-03-29T02:47:24;3.33;;;0.90;;
16063;SDS011;8136;53.172;8.256;2024-03-29T02:49:51;1.63;;;0.80;;
16063;SDS011;8136;53.172;8.256;2024-03-29T02:52:17;4.23;;;1.00;;
16063;SDS011;8136;53.172;8.256;2024-03-29T02:54:44;2.13;;;0.60;;
16063;SDS011;8136;53.172;8.256;2024-03-29T02:57:10;1.73;;;0.67;;
16063;SDS011;8136;53.172;8.256;2024-03-29T02:59:38;2.43;;;0.60;;
16063;SDS011;8136;53.172;8.256;2024-03-29T03:02:04;3.47;;;0.60;;
16063;SDS011;8136;53.172;8.256;2024-03-29T03:04:31;1.97;;;0.67;;
16063;SDS011;8136;53.172;8.256;2024-03-29T03:06:59;2.70;;;0.77;;
16063;SDS011;8136;53.172;8.256;2024-03-29T03:09:52;1.43;;;0.80;;
16063;SDS011;8136;53.172;8.256;2024-03-29T03:12:36;2.20;;;0.97;;
16063;SDS011;8136;53.172;8.256;2024-03-29T03:15:05;1.43;;;0.73;;
16063;SDS011;8136;53.172;8.256;2024-03-29T03:17:33;1.10;;;0.70;;
16063;SDS011;8136;53.172;8.256;2024-03-29T03:20:00;2.23;;;0.63;;
16063;SDS011;8136;53.172;8.256;2024-03-29T03:22:26;1.97;;;0.60;;
16063;SDS011;8136;53.172;8.256;2024-03-29T03:24:52;3.07;;;0.53;;
16063;SDS011;8136;53.172;8.256;2024-03-29T03:27:20;1.90;;;0.90;;
16063;SDS011;8136;53.172;8.256;2024-03-29T03:29:48;4.40;;;0.87;;
16063;SDS011;8136;53.172;8.256;2024-03-29T03:32:17;1.00;;;0.70;;
16063;SDS011;8136;53.172;8.256;2024-03-29T03:34:52;1.60;;;0.70;;
16063;SDS011;8136;53.172;8.256;2024-03-29T03:37:19;2.60;;;0.73;;
16063;SDS011;8136;53.172;8.256;2024-03-29T03:39:46;2.10;;;0.70;;
16063;SDS011;8136;53.172;8.256;2024-03-29T03:42:13;1.50;;;0.83;;
16063;SDS011;8136;53.172;8.256;2024-03-29T03:44:39;2.70;;;0.80;;
16063;SDS011;8136;53.172;8.256;2024-03-29T03:47:06;2.07;;;1.00;;
16063;SDS011;8136;53.172;8.256;2024-03-29T03:49:37;4.47;;;0.93;;
16063;SDS011;8136;53.172;8.256;2024-03-29T03:52:05;2.97;;;0.87;;
16063;SDS011;8136;53.172;8.256;2024-03-29T03:54:31;1.23;;;0.60;;
16063;SDS011;8136;53.172;8.256;2024-03-29T03:57:01;2.63;;;0.80;;
16063;SDS011;8136;53.172;8.256;2024-03-29T03:59:27;3.33;;;0.90;;
16063;SDS011;8136;53.172;8.256;2024-03-29T04:01:54;3.10;;;0.80;;
16063;SDS011;8136;53.172;8.256;2024-03-29T04:04:19;1.60;;;0.57;;
16063;SDS011;8136;53.172;8.256;2024-03-29T04:06:48;0.97;;;0.70;;
16063;SDS011;8136;53.172;8.256;2024-03-29T04:09:14;3.23;;;0.90;;
16063;SDS011;8136;53.172;8.256;2024-03-29T04:11:42;2.63;;;0.80;;
16063;SDS011;8136;53.172;8.256;2024-03-29T04:14:08;2.77;;;0.73;;
16063;SDS011;8136;53.172;8.256;2024-03-29T04:16:35;3.60;;;0.90;;
16063;SDS011;8136;53.172;8.256;2024-03-29T04:19:01;0.97;;;0.63;;
16063;SDS011;8136;53.172;8.256;2024-03-29T04:21:28;0.63;;;0.63;;
16063;SDS011;8136;53.172;8.256;2024-03-29T04:23:55;1.70;;;0.77;;
16063;SDS011;8136;53.172;8.256;2024-03-29T04:26:22;3.33;;;1.00;;
16063;SDS011;8136;53.172;8.256;2024-03-29T04:28:48;1.53;;;0.90;;
16063;SDS011;8136;53.172;8.256;2024-03-29T04:31:15;1.73;;;0.70;;
16063;SDS011;8136;53.172;8.256;2024-03-29T04:33:41;1.07;;;0.57;;
16063;SDS011;8136;53.172;8.256;2024-03-29T04:36:10;1.77;;;0.77;;
16063;SDS011;8136;53.172;8.256;2024-03-29T04:38:36;4.23;;;0.70;;
16063;SDS011;8136;53.172;8.256;2024-03-29T04:41:07;1.77;;;0.80;;
16063;SDS011;8136;53.172;8.256;2024-03-29T04:43:34;3.20;;;1.03;;
16063;SDS011;8136;53.172;8.256;2024-03-29T04:46:01;3.90;;;0.90;;
16063;SDS011;8136;53.172;8.256;2024-03-29T04:48:34;2.10;;;1.00;;
16063;SDS011;8136;53.172;8.256;2024-03-29T04:51:01;2.40;;;0.67;;
16063;SDS011;8136;53.172;8.256;2024-03-29T04:53:28;2.20;;;0.73;;
16063;SDS011;8136;53.172;8.256;2024-03-29T04:55:56;1.37;;;0.70;;
16063;SDS011;8136;53.172;8.256;2024-03-29T04:58:24;4.17;;;1.03;;
16063;SDS011;8136;53.172;8.256;2024-03-29T05:00:52;1.70;;;0.77;;
16063;SDS011;8136;53.172;8.256;2024-03-29T05:03:20;3.07;;;0.73;;
16063;SDS011;8136;53.172;8.256;2024-03-29T05:05:48;2.50;;;0.77;;
16063;SDS011;8136;53.172;8.256;2024-03-29T05:08:15;1.00;;;0.63;;
16063;SDS011;8136;53.172;8.256;2024-03-29T05:10:43;1.90;;;0.70;;
16063;SDS011;8136;53.172;8.256;2024-03-29T05:13:10;1.13;;;0.67;;
16063;SDS011;8136;53.172;8.256;2024-03-29T05:15:38;4.57;;;0.90;;
16063;SDS011;8136;53.172;8.256;2024-03-29T05:18:05;5.63;;;0.80;;
16063;SDS011;8136;53.172;8.256;2024-03-29T05:20:32;4.77;;;0.90;;
16063;SDS011;8136;53.172;8.256;2024-03-29T05:22:59;1.53;;;0.87;;
16063;SDS011;8136;53.172;8.256;2024-03-29T05:25:27;0.83;;;0.70;;
16063;SDS011;8136;53.172;8.256;2024-03-29T05:27:54;2.10;;;0.63;;
16063;SDS011;8136;53.172;8.256;2024-03-29T05:30:20;4.63;;;0.70;;
16063;SDS011;8136;53.172;8.256;2024-03-29T05:32:50;1.37;;;0.70;;
16063;SDS011;8136;53.172;8.256;2024-03-29T05:35:17;2.13;;;0.60;;
16063;SDS011;8136;53.172;8.256;2024-03-29T05:37:44;2.17;;;0.73;;
16063;SDS011;8136;53.172;8.256;2024-03-29T05:40:15;2.37;;;0.87;;
16063;SDS011;8136;53.172;8.256;2024-03-29T05:42:42;3.27;;;1.10;;
16063;SDS011;8136;53.172;8.256;2024-03-29T05:45:21;1.23;;;0.50;;
16063;SDS011;8136;53.172;8.256;2024-03-29T05:47:52;4.07;;;0.90;;
16063;SDS011;8136;53.172;8.256;2024-03-29T05:50:19;2.50;;;1.00;;
16063;SDS011;8136;53.172;8.256;2024-03-29T05:52:46;2.70;;;0.93;;
16063;SDS011;8136;53.172;8.256;2024-03-29T05:55:14;2.27;;;0.77;;
16063;SDS011;8136;53.172;8.256;2024-03-29T05:57:41;3.43;;;0.87;;
16063;SDS011;8136;53.172;8.256;2024-03-29T06:00:10;1.27;;;0.50;;
16063;SDS011;8136;53.172;8.256;2024-03-29T06:02:39;1.53;;;0.60;;
16063;SDS011;8136;53.172;8.256;2024-03-29T06:05:09;2.07;;;0.80;;
16063;SDS011;8136;53.172;8.256;2024-03-29T06:07:36;3.80;;;1.00;;
16063;SDS011;8136;53.172;8.256;2024-03-29T06:10:03;1.60;;;0.70;;
16063;SDS011;8136;53.172;8.256;2024-03-29T06:12:31;1.13;;;0.60;;
16063;SDS011;8136;53.172;8.256;2024-03-29T06:14:58;1.57;;;0.73;;
16063;SDS011;8136;53.172;8.256;2024-03-29T06:17:43;0.60;;;0.50;;
16063;SDS011;8136;53.172;8.256;2024-03-29T06:20:12;5.13;;;0.80;;
16063;SDS011;8136;53.172;8.256;2024-03-29T06:22:39;2.20;;;0.70;;
16063;SDS011;8136;53.172;8.256;2024-03-29T06:25:06;2.80;;;0.60;;
16063;SDS011;8136;53.172;8.256;2024-03-29T06:27:36;3.57;;;1.00;;
16063;SDS011;8136;53.172;8.256;2024-03-29T06:30:04;1.77;;;0.83;;
16063;SDS011;8136;53.172;8.256;2024-03-29T06:32:33;2.57;;;0.50;;
16063;SDS011;8136;53.172;8.256;2024-03-29T06:35:00;1.07;;;0.57;;
16063;SDS011;8136;53.172;8.256;2024-03-29T06:37:29;0.60;;;0.57;;
16063;SDS011;8136;53.172;8.256;2024-03-29T06:39:55;2.87;;;0.60;;
16063;SDS011;8136;53.172;8.256;2024-03-29T06:42:22;1.37;;;0.50;;
16063;SDS011;8136;53.172;8.256;2024-03-29T06:44:49;1.47;;;0.80;;
16063;SDS011;8136;53.172;8.256;2024-03-29T06:47:17;0.70;;;0.50;;
16063;SDS011;8136;53.172;8.256;2024-03-29T06:49:44;1.20;;;0.80;;
16063;SDS011;8136;53.172;8.256;2024-03-29T06:52:11;1.00;;;0.60;;
16063;SDS011;8136;53.172;8.256;2024-03-29T06:54:39;1.10;;;0.63;;
16063;SDS011;8136;53.172;8.256;2024-03-29T06:57:07;1.03;;;0.70;;
16063;SDS011;8136;53.172;8.256;2024-03-29T06:59:35;1.57;;;0.60;;
16063;SDS011;8136;53.172;8.256;2024-03-29T07:02:02;1.37;;;0.60;;
16063;SDS011;8136;53.172;8.256;2024-03-29T07:04:29;2.77;;;0.63;;
16063;SDS011;8136;53.172;8.256;2024-03-29T07:06:56;3.53;;;0.83;;
16063;SDS011;8136;53.172;8.256;2024-03-29T07:09:22;2.00;;;0.73;;
16063;SDS011;8136;53.172;8.256;2024-03-29T07:11:51;1.60;;;1.00;;
16063;SDS011;8136;53.172;8.256;2024-03-29T07:14:21;1.77;;;0.60;;
16063;SDS011;8136;53.172;8.256;2024-03-29T07:16:51;0.90;;;0.50;;
16063;SDS011;8136;53.172;8.256;2024-03-29T07:19:22;1.87;;;0.70;;
16063;SDS011;8136;53.172;8.256;2024-03-29T07:21:49;1.80;;;0.70;;
16063;SDS011;8136;53.172;8.256;2024-03-29T07:24:18;1.83;;;0.60;;
16063;SDS011;8136;53.172;8.256;2024-03-29T07:26:45;2.37;;;0.80;;
16063;SDS011;8136;53.172;8.256;2024-03-29T07:29:13;1.30;;;0.90;;
16063;SDS011;8136;53.172;8.256;2024-03-29T07:31:40;2.63;;;0.67;;
16063;SDS011;8136;53.172;8.256;2024-03-29T07:34:07;1.73;;;0.50;;
16063;SDS011;8136;53.172;8.256;2024-03-29T07:36:35;2.87;;;0.80;;
16063;SDS011;8136;53.172;8.256;2024-03-29T07:39:02;2.97;;;0.53;;
16063;SDS011;8136;53.172;8.256;2024-03-29T07:41:30;4.30;;;1.00;;
16063;SDS011;8136;53.172;8.256;2024-03-29T07:43:57;0.43;;;0.43;;
16063;SDS011;8136;53.172;8.256;2024-03-29T07:46:28;2.50;;;0.67;;
16063;SDS011;8136;53.172;8.256;2024-03-29T07:48:57;1.20;;;0.50;;
16063;SDS011;8136;53.172;8.256;2024-03-29T07:51:24;1.37;;;0.67;;
16063;SDS011;8136;53.172;8.256;2024-03-29T07:53:51;1.27;;;0.80;;
16063;SDS011;8136;53.172;8.256;2024-03-29T07:56:18;2.37;;;0.70;;
16063;SDS011;8136;53.172;8.256;2024-03-29T07:58:46;2.90;;;0.60;;
16063;SDS011;8136;53.172;8.256;2024-03-29T08:01:17;0.70;;;0.60;;
16063;SDS011;8136;53.172;8.256;2024-03-29T08:03:46;2.30;;;0.90;;
16063;SDS011;8136;53.172;8.256;2024-03-29T08:06:16;3.70;;;0.70;;
16063;SDS011;8136;53.172;8.256;2024-03-29T08:08:44;1.17;;;0.63;;
16063;SDS011;8136;53.172;8.256;2024-03-29T08:11:11;1.20;;;0.70;;
16063;SDS011;8136;53.172;8.256;2024-03-29T08:13:38;1.00;;;0.60;;
16063;SDS011;8136;53.172;8.256;2024-03-29T08:16:06;0.77;;;0.57;;
16063;SDS011;8136;53.172;8.256;2024-03-29T08:18:34;1.70;;;0.70;;
16063;SDS011;8136;53.172;8.256;2024-03-29T08:21:02;1.23;;;0.60;;
16063;SDS011;8136;53.172;8.256;2024-03-29T08:23:30;1.93;;;0.50;;
16063;SDS011;8136;53.172;8.256;2024-03-29T08:25:57;1.67;;;0.60;;
16063;SDS011;8136;53.172;8.256;2024-03-29T08:28:24;1.13;;;0.60;;
16063;SDS011;8136;53.172;8.256;2024-03-29T08:30:57;1.43;;;0.47;;
16063;SDS011;8136;53.172;8.256;2024-03-29T08:33:25;2.13;;;0.60;;
16063;SDS011;8136;53.172;8.256;2024-03-29T08:35:52;1.93;;;0.60;;
16063;SDS011;8136;53.172;8.256;2024-03-29T08:38:20;2.37;;;0.70;;
16063;SDS011;8136;53.172;8.256;2024-03-29T08:40:47;1.47;;;0.70;;
16063;SDS011;8136;53.172;8.256;2024-03-29T08:43:14;4.13;;;0.93;;
16063;SDS011;8136;53.172;8.256;2024-03-29T08:45:41;1.77;;;0.70;;
16063;SDS011;8136;53.172;8.256;2024-03-29T08:48:08;3.13;;;0.70;;
16063;SDS011;8136;53.172;8.256;2024-03-29T08:50:35;4.73;;;0.77;;
16063;SDS011;8136;53.172;8.256;2024-03-29T08:53:02;0.90;;;0.67;;
16063;SDS011;8136;53.172;8.256;2024-03-29T08:55:31;2.23;;;0.77;;
16063;SDS011;8136;53.172;8.256;2024-03-29T08:57:59;0.97;;;0.80;;
16063;SDS011;8136;53.172;8.256;2024-03-29T09:00:27;1.90;;;0.77;;
16063;SDS011;8136;53.172;8.256;2024-03-29T09:02:55;1.30;;;0.83;;
16063;SDS011;8136;53.172;8.256;2024-03-29T09:05:22;2.70;;;0.70;;
16063;SDS011;8136;53.172;8.256;2024-03-29T09:07:49;1.63;;;0.97;;
16063;SDS011;8136;53.172;8.256;2024-03-29T09:23:40;2.17;;;0.70;;
16063;SDS011;8136;53.172;8.256;2024-03-29T09:29:22;2.50;;;0.70;;
16063;SDS011;8136;53.172;8.256;2024-03-29T09:31:56;1.90;;;0.60;;
16063;SDS011;8136;53.172;8.256;2024-03-29T09:34:44;4.90;;;0.93;;
16063;SDS011;8136;53.172;8.256;2024-03-29T09:37:25;2.47;;;0.80;;
16063;SDS011;8136;53.172;8.256;2024-03-29T09:39:53;2.33;;;0.93;;
16063;SDS011;8136;53.172;8.256;2024-03-29T09:42:21;2.87;;;0.63;;
16063;SDS011;8136;53.172;8.256;2024-03-29T09:44:50;1.73;;;0.70;;
16063;SDS011;8136;53.172;8.256;2024-03-29T09:47:18;1.00;;;0.80;;
16063;SDS011;8136;53.172;8.256;2024-03-29T09:49:45;1.60;;;0.80;;
16063;SDS011;8136;53.172;8.256;2024-03-29T09:52:16;1.80;;;0.90;;
16063;SDS011;8136;53.172;8.256;2024-03-29T09:54:45;2.47;;;1.30;;
16063;SDS011;8136;53.172;8.256;2024-03-29T09:57:12;4.53;;;0.97;;
16063;SDS011;8136;53.172;8.256;2024-03-29T10:03:23;2.73;;;1.00;;
16063;SDS011;8136;53.172;8.256;2024-03-29T10:06:07;2.13;;;1.17;;
16063;SDS011;8136;53.172;8.256;2024-03-29T10:09:07;1.70;;;0.80;;
16063;SDS011;8136;53.172;8.256;2024-03-29T10:11:36;2.17;;;0.90;;
16063;SDS011;8136;53.172;8.256;2024-03-29T10:14:07;2.50;;;0.80;;
16063;SDS011;8136;53.172;8.256;2024-03-29T10:16:34;1.53;;;1.00;;
16063;SDS011;8136;53.172;8.256;2024-03-29T10:19:08;1.83;;;1.10;;
16063;SDS011;8136;53.172;8.256;2024-03-29T10:21:44;2.20;;;1.00;;
16063;SDS011;8136;53.172;8.256;2024-03-29T10:27:34;0.90;;;0.80;;
16063;SDS011;8136;53.172;8.256;2024-03-29T10:30:01;2.70;;;0.80;;
16063;SDS011;8136;53.172;8.256;2024-03-29T10:32:29;1.87;;;1.23;;
16063;SDS011;8136;53.172;8.256;2024-03-29T10:34:55;2.83;;;1.10;;
16063;SDS011;8136;53.172;8.256;2024-03-29T10:37:23;1.70;;;1.03;;
16063;SDS011;8136;53.172;8.256;2024-03-29T10:39:54;4.30;;;1.10;;
16063;SDS011;8136;53.172;8.256;2024-03-29T10:42:21;2.77;;;1.20;;
16063;SDS011;8136;53.172;8.256;2024-03-29T10:44:53;1.27;;;1.00;;
16063;SDS011;8136;53.172;8.256;2024-03-29T10:47:22;1.93;;;1.13;;
16063;SDS011;8136;53.172;8.256;2024-03-29T10:49:50;2.27;;;1.53;;
16063;SDS011;8136;53.172;8.256;2024-03-29T10:52:18;2.80;;;1.40;;
16063;SDS011;8136;53.172;8.256;2024-03-29T10:54:47;1.83;;;1.40;;
16063;SDS011;8136;53.172;8.256;2024-03-29T10:57:16;1.80;;;1.37;;
16063;SDS011;8136;53.172;8.256;2024-03-29T10:59:48;1.77;;;1.53;;
16063;SDS011;8136;53.172;8.256;2024-03-29T11:02:25;1.97;;;1.20;;
16063;SDS011;8136;53.172;8.256;2024-03-29T11:05:01;2.10;;;1.10;;
16063;SDS011;8136;53.172;8.256;2024-03-29T11:07:31;3.13;;;1.30;;
16063;SDS011;8136;53.172;8.256;2024-03-29T12:23:29;2.17;;;1.33;;
16063;SDS011;8136;53.172;8.256;2024-03-29T12:37:27;1.63;;;1.20;;
16063;SDS011;8136;53.172;8.256;2024-03-29T12:40:01;3.00;;;1.40;;
16063;SDS011;8136;53.172;8.256;2024-03-29T12:42:38;2.90;;;1.30;;
16063;SDS011;8136;53.172;8.256;2024-03-29T12:45:08;1.43;;;1.17;;
16063;SDS011;8136;53.172;8.256;2024-03-29T12:47:37;2.30;;;1.13;;
16063;SDS011;8136;53.172;8.256;2024-03-29T12:50:04;3.13;;;1.20;;
16063;SDS011;8136;53.172;8.256;2024-03-29T12:52:37;2.07;;;1.23;;
16063;SDS011;8136;53.172;8.256;2024-03-29T12:55:07;2.30;;;1.57;;
16063;SDS011;8136;53.172;8.256;2024-03-29T12:57:35;1.13;;;1.03;;
16063;SDS011;8136;53.172;8.256;2024-03-29T13:00:02;1.70;;;1.40;;
16063;SDS011;8136;53.172;8.256;2024-03-29T13:02:34;1.73;;;1.20;;
16063;SDS011;8136;53.172;8.256;2024-03-29T13:05:01;3.23;;;1.37;;
16063;SDS011;8136;53.172;8.256;2024-03-29T13:07:28;1.63;;;1.40;;
16063;SDS011;8136;53.172;8.256;2024-03-29T13:09:55;2.50;;;1.30;;
16063;SDS011;8136;53.172;8.256;2024-03-29T13:12:25;2.50;;;1.37;;
16063;SDS011;8136;53.172;8.256;2024-03-29T13:14:52;1.30;;;1.20;;
16063;SDS011;8136;53.172;8.256;2024-03-29T13:17:18;2.10;;;1.50;;
16063;SDS011;8136;53.172;8.256;2024-03-29T15:15:55;0.73;;;0.73;;
16063;SDS011;8136;53.172;8.256;2024-03-29T15:18:22;1.33;;;0.73;;
16063;SDS011;8136;53.172;8.256;2024-03-29T15:20:53;1.50;;;0.97;;
16063;SDS011;8136;53.172;8.256;2024-03-29T15:23:20;2.33;;;0.90;;
16063;SDS011;8136;53.172;8.256;2024-03-29T15:25:50;2.20;;;0.70;;
16063;SDS011;8136;53.172;8.256;2024-03-29T15:40:24;1.53;;;0.60;;
16063;SDS011;8136;53.172;8.256;2024-03-29T16:51:30;2.20;;;0.80;;
16063;SDS011;8136;53.172;8.256;2024-03-29T17:04:28;2.50;;;0.80;;
16063;SDS011;8136;53.172;8.256;2024-03-29T17:20:19;1.13;;;0.80;;
16063;SDS011;8136;53.172;8.256;2024-03-29T17:26:34;1.70;;;0.70;;
16063;SDS011;8136;53.172;8.256;2024-03-29T17:29:52;0.80;;;0.67;;
16063;SDS011;8136;53.172;8.256;2024-03-29T19:38:20;3.53;;;1.27;;
16063;SDS011;8136;53.172;8.256;2024-03-29T19:40:49;3.13;;;1.87;;
16063;SDS011;8136;53.172;8.256;2024-03-29T19:43:19;2.40;;;1.80;;
16063;SDS011;8136;53.172;8.256;2024-03-29T19:46:12;1.63;;;1.53;;
16063;SDS011;8136;53.172;8.256;2024-03-29T19:51:22;2.83;;;2.47;;
16063;SDS011;8136;53.172;8.256;2024-03-29T19:53:51;2.20;;;2.00;;
16063;SDS011;8136;53.172;8.256;2024-03-29T19:57:13;3.53;;;2.40;;
16063;SDS011;8136;53.172;8.256;2024-03-29T19:59:49;2.67;;;2.30;;
16063;SDS011;8136;53.172;8.256;2024-03-29T20:02:16;4.67;;;2.50;;
16063;SDS011;8136;53.172;8.256;2024-03-29T21:46:27;4.33;;;3.37;;
16063;SDS011;8136;53.172;8.256;2024-03-29T21:48:54;4.40;;;3.40;;
16063;SDS011;8136;53.172;8.256;2024-03-29T21:51:20;3.83;;;3.37;;
16063;SDS011;8136;53.172;8.256;2024-03-29T21:53:48;3.60;;;2.77;;
16063;SDS011;8136;53.172;8.256;2024-03-29T21:56:14;5.43;;;3.50;;
16063;SDS011;8136;53.172;8.256;2024-03-29T21:58:41;4.87;;;3.57;;
16063;SDS011;8136;53.172;8.256;2024-03-29T22:01:07;3.70;;;3.30;;
16063;SDS011;8136;53.172;8.256;2024-03-29T22:03:35;3.53;;;2.90;;
16063;SDS011;8136;53.172;8.256;2024-03-29T22:06:01;5.43;;;2.97;;
16063;SDS011;8136;53.172;8.256;2024-03-29T22:08:27;3.63;;;3.10;;
16063;SDS011;8136;53.172;8.256;2024-03-29T22:10:53;4.60;;;3.30;;
16063;SDS011;8136;53.172;8.256;2024-03-29T22:13:21;3.80;;;3.40;;
16063;SDS011;8136;53.172;8.256;2024-03-29T22:15:47;3.93;;;3.03;;
16063;SDS011;8136;53.172;8.256;2024-03-29T22:18:14;4.17;;;3.37;;
16063;SDS011;8136;53.172;8.256;2024-03-29T22:20:41;4.23;;;3.03;;
16063;SDS011;8136;53.172;8.256;2024-03-29T22:23:08;3.30;;;2.63;;
16063;SDS011;8136;53.172;8.256;2024-03-29T22:25:34;3.97;;;3.30;;
16063;SDS011;8136;53.172;8.256;2024-03-29T22:28:01;4.87;;;3.40;;
16063;SDS011;8136;53.172;8.256;2024-03-29T22:30:27;3.90;;;2.90;;
16063;SDS011;8136;53.172;8.256;2024-03-29T22:32:54;4.97;;;3.00;;
16063;SDS011;8136;53.172;8.256;2024-03-29T22:35:22;3.37;;;2.60;;
16063;SDS011;8136;53.172;8.256;2024-03-29T22:37:51;3.00;;;2.20;;
16063;SDS011;8136;53.172;8.256;2024-03-29T22:40:17;2.30;;;2.00;;
16063;SDS011;8136;53.172;8.256;2024-03-29T22:42:44;2.67;;;2.00;;
16063;SDS011;8136;53.172;8.256;2024-03-29T22:45:09;2.63;;;2.03;;
16063;SDS011;8136;53.172;8.256;2024-03-29T22:47:36;2.53;;;2.07;;
16063;SDS011;8136;53.172;8.256;2024-03-29T22:50:02;3.70;;;1.83;;
16063;SDS011;8136;53.172;8.256;2024-03-29T22:52:31;1.83;;;1.73;;
16063;SDS011;8136;53.172;8.256;2024-03-29T22:54:58;2.40;;;1.63;;
16063;SDS011;8136;53.172;8.256;2024-03-29T22:57:25;2.23;;;1.67;;
16063;SDS011;8136;53.172;8.256;2024-03-29T22:59:51;2.73;;;1.93;;
16063;SDS011;8136;53.172;8.256;2024-03-29T23:02:17;2.27;;;1.73;;
16063;SDS011;8136;53.172;8.256;2024-03-29T23:04:43;2.10;;;1.90;;
16063;SDS011;8136;53.172;8.256;2024-03-29T23:07:10;2.17;;;1.90;;
16063;SDS011;8136;53.172;8.256;2024-03-29T23:09:39;3.00;;;2.70;;
16063;SDS011;8136;53.172;8.256;2024-03-29T23:12:07;3.23;;;1.97;;
16063;SDS011;8136;53.172;8.256;2024-03-29T23:14:33;2.10;;;1.90;;
16063;SDS011;8136;53.172;8.256;2024-03-29T23:17:00;2.80;;;2.10;;
16063;SDS011;8136;53.172;8.256;2024-03-29T23:19:26;2.30;;;2.10;;
16063;SDS011;8136;53.172;8.256;2024-03-29T23:21:53;1.80;;;1.60;;
16063;SDS011;8136;53.172;8.256;2024-03-29T23:24:19;1.97;;;1.70;;
16063;SDS011;8136;53.172;8.256;2024-03-29T23:26:46;2.03;;;1.60;;
16063;SDS011;8136;53.172;8.256;2024-03-29T23:29:13;2.10;;;1.90;;
16063;SDS011;8136;53.172;8.256;2024-03-29T23:31:40;1.70;;;1.60;;
16063;SDS011;8136;53.172;8.256;2024-03-29T23:34:05;2.37;;;1.70;;
16063;SDS011;8136;53.172;8.256;2024-03-29T23:36:32;1.73;;;1.60;;
16063;SDS011;8136;53.172;8.256;2024-03-29T23:38:58;3.17;;;1.80;;
16063;SDS011;8136;53.172;8.256;2024-03-29T23:41:25;2.50;;;2.20;;
16063;SDS011;8136;53.172;8.256;2024-03-29T23:43:51;2.47;;;1.63;;
16063;SDS011;8136;53.172;8.256;2024-03-29T23:46:19;1.57;;;1.47;;
16063;SDS011;8136;53.172;8.256;2024-03-29T23:48:45;2.57;;;1.87;;
16063;SDS011;8136;53.172;8.256;2024-03-29T23:51:12;2.70;;;1.60;;
16063;SDS011;8136;53.172;8.256;2024-03-29T23:53:37;1.83;;;1.73;;
16063;SDS011;8136;53.172;8.256;2024-03-29T23:56:04;1.90;;;1.73;;
16063;SDS011;8136;53.172;8.256;2024-03-29T23:58:30;2.40;;;1.70;;
